createdAt,value
2022-08-25T00:01:10.715Z,28.73
2022-08-25T00:03:39.579Z,28.73
2022-08-25T00:06:10.449Z,28.71
2022-08-25T00:08:39.192Z,28.67
2022-08-25T00:11:09.577Z,28.67
2022-08-25T00:13:36.756Z,28.66
2022-08-25T00:16:03.917Z,28.60
2022-08-25T00:18:31.103Z,28.62
2022-08-25T00:20:58.236Z,28.63
2022-08-25T00:23:25.403Z,28.63
2022-08-25T00:25:54.059Z,28.66
2022-08-25T00:28:21.402Z,28.70
2022-08-25T00:30:48.786Z,28.71
2022-08-25T00:33:16.027Z,28.73
2022-08-25T00:35:44.013Z,28.75
2022-08-25T00:38:11.715Z,28.72
2022-08-25T00:40:40.423Z,28.70
2022-08-25T00:43:09.373Z,28.71
2022-08-25T00:45:37.038Z,28.73
2022-08-25T00:48:04.962Z,28.69
2022-08-25T00:50:34.579Z,28.64
2022-08-25T00:53:04.735Z,28.68
2022-08-25T00:55:36.997Z,28.68
2022-08-25T00:58:07.828Z,28.66
2022-08-25T01:00:40.946Z,28.65
2022-08-25T01:03:11.136Z,28.60
2022-08-25T01:05:39.580Z,28.57
2022-08-25T01:08:09.130Z,28.56
2022-08-25T01:10:40.837Z,28.60
2022-08-25T01:13:16.555Z,28.66
2022-08-25T01:15:46.789Z,28.71
2022-08-25T01:18:14.882Z,28.71
2022-08-25T01:20:42.623Z,28.70
2022-08-25T01:23:11.104Z,28.65
2022-08-25T01:25:48.475Z,28.70
2022-08-25T01:28:16.911Z,28.67
2022-08-25T01:30:44.152Z,28.69
2022-08-25T01:33:12.378Z,28.67
2022-08-25T01:35:40.667Z,28.71
2022-08-25T01:38:08.849Z,28.69
2022-08-25T01:40:39.370Z,28.67
2022-08-25T01:43:12.370Z,28.65
2022-08-25T01:45:41.405Z,28.63
2022-08-25T01:48:09.229Z,28.59
2022-08-25T01:50:36.918Z,28.57
2022-08-25T01:53:08.565Z,28.57
2022-08-25T01:55:37.585Z,28.58
2022-08-25T01:58:04.816Z,28.59
2022-08-25T02:00:32.564Z,28.60
2022-08-25T02:02:59.782Z,28.60
2022-08-25T02:05:28.063Z,28.57
2022-08-25T02:07:55.343Z,28.61
2022-08-25T02:10:22.562Z,28.61
2022-08-25T02:12:51.844Z,28.67
2022-08-25T02:15:21.869Z,28.66
2022-08-25T02:17:49.038Z,28.64
2022-08-25T02:20:16.204Z,28.66
2022-08-25T02:22:43.484Z,28.70
2022-08-25T02:25:20.781Z,28.65
2022-08-25T02:27:47.924Z,28.65
2022-08-25T02:30:17.847Z,28.62
2022-08-25T02:32:45.008Z,28.65
2022-08-25T02:35:12.622Z,28.59
2022-08-25T02:37:39.778Z,28.55
2022-08-25T02:40:08.275Z,28.51
2022-08-25T02:42:35.538Z,28.51
2022-08-25T02:45:04.206Z,28.53
2022-08-25T02:47:32.687Z,28.58
2022-08-25T02:49:59.847Z,28.60
2022-08-25T02:52:27.082Z,28.61
2022-08-25T02:54:54.215Z,28.61
2022-08-25T02:57:21.419Z,28.63
2022-08-25T02:59:48.591Z,28.62
2022-08-25T03:02:15.886Z,28.62
2022-08-25T03:04:44.501Z,28.63
2022-08-25T03:07:11.749Z,28.64
2022-08-25T03:09:39.736Z,28.62
2022-08-25T03:12:07.247Z,28.61
2022-08-25T03:14:34.373Z,28.60
2022-08-25T03:17:01.594Z,28.59
2022-08-25T03:19:29.920Z,28.60
2022-08-25T03:21:58.719Z,28.56
2022-08-25T03:24:26.909Z,28.55
2022-08-25T03:26:54.419Z,28.47
2022-08-25T03:29:22.417Z,28.50
2022-08-25T03:31:49.930Z,28.51
2022-08-25T03:34:18.974Z,28.55
2022-08-25T03:36:48.961Z,28.50
2022-08-25T03:39:19.668Z,28.55
2022-08-25T03:41:46.882Z,28.52
2022-08-25T03:44:14.253Z,28.46
2022-08-25T03:46:43.965Z,28.53
2022-08-25T03:49:14.412Z,28.58
2022-08-25T03:51:44.675Z,28.57
2022-08-25T03:54:11.787Z,28.57
2022-08-25T03:56:40.323Z,28.56
2022-08-25T03:59:08.691Z,28.47
2022-08-25T04:01:36.363Z,28.38
2022-08-25T04:04:04.437Z,28.24
2022-08-25T04:06:31.658Z,28.21
2022-08-25T04:08:58.889Z,28.17
2022-08-25T04:11:27.722Z,28.08
2022-08-25T04:13:58.955Z,27.98
2022-08-25T04:16:29.164Z,28.00
2022-08-25T04:18:58.024Z,28.05
2022-08-25T04:21:25.939Z,28.00
2022-08-25T04:23:54.947Z,27.97
2022-08-25T04:26:23.986Z,27.96
2022-08-25T04:28:51.481Z,27.96
2022-08-25T04:31:21.049Z,28.00
2022-08-25T04:33:48.468Z,28.02
2022-08-25T04:36:17.413Z,28.03
2022-08-25T04:38:46.166Z,28.05
2022-08-25T04:41:15.345Z,28.05
2022-08-25T04:43:43.738Z,28.04
2022-08-25T04:46:13.392Z,28.05
2022-08-25T04:48:49.127Z,28.07
2022-08-25T04:51:19.064Z,28.08
2022-08-25T04:53:46.839Z,28.07
2022-08-25T04:56:15.587Z,28.11
2022-08-25T04:58:42.930Z,28.07
2022-08-25T05:01:12.350Z,28.06
2022-08-25T05:03:39.591Z,28.02
2022-08-25T05:06:10.917Z,28.05
2022-08-25T05:08:41.172Z,28.04
2022-08-25T05:11:09.908Z,28.02
2022-08-25T05:13:37.334Z,28.05
2022-08-25T05:16:05.094Z,28.08
2022-08-25T05:18:36.978Z,28.05
2022-08-25T05:21:06.529Z,28.08
2022-08-25T05:23:35.239Z,28.14
2022-08-25T05:26:04.563Z,28.12
2022-08-25T05:28:32.273Z,28.15
2022-08-25T05:31:00.843Z,28.15
2022-08-25T05:33:28.791Z,28.14
2022-08-25T05:35:59.643Z,28.12
2022-08-25T05:38:26.855Z,28.16
2022-08-25T05:40:57.644Z,28.17
2022-08-25T05:43:25.286Z,28.16
2022-08-25T05:45:54.022Z,28.14
2022-08-25T05:48:21.219Z,28.09
2022-08-25T05:50:51.871Z,28.15
2022-08-25T05:53:19.223Z,28.14
2022-08-25T05:55:46.542Z,28.12
2022-08-25T05:58:15.104Z,28.13
2022-08-25T06:00:44.395Z,28.16
2022-08-25T06:03:11.919Z,28.19
2022-08-25T06:05:39.542Z,28.19
2022-08-25T06:08:07.303Z,28.19
2022-08-25T06:10:35.493Z,28.23
2022-08-25T06:13:03.358Z,28.23
2022-08-25T06:15:35.596Z,28.18
2022-08-25T06:18:03.481Z,28.22
2022-08-25T06:20:31.408Z,28.24
2022-08-25T06:22:59.042Z,28.21
2022-08-25T06:25:27.229Z,28.21
2022-08-25T06:27:54.948Z,28.22
2022-08-25T06:30:25.738Z,28.20
2022-08-25T06:32:57.046Z,28.17
2022-08-25T06:35:24.096Z,28.18
2022-08-25T06:37:51.239Z,28.15
2022-08-25T06:40:18.627Z,28.17
2022-08-25T06:42:48.369Z,28.26
2022-08-25T06:45:15.650Z,28.21
2022-08-25T06:47:42.819Z,28.19
2022-08-25T06:50:14.058Z,28.28
2022-08-25T06:52:41.189Z,28.31
2022-08-25T06:55:09.083Z,28.22
2022-08-25T06:57:36.226Z,28.25
2022-08-25T07:00:05.523Z,28.26
2022-08-25T07:02:32.779Z,28.26
2022-08-25T07:05:02.603Z,28.25
2022-08-25T07:07:43.252Z,28.32
2022-08-25T07:10:11.579Z,28.26
2022-08-25T07:12:39.087Z,28.30
2022-08-25T07:15:21.942Z,28.31
2022-08-25T07:17:49.520Z,28.25
2022-08-25T07:20:19.382Z,28.27
2022-08-25T07:22:48.231Z,28.25
2022-08-25T07:25:15.438Z,28.22
2022-08-25T07:27:45.567Z,28.23
2022-08-25T07:30:12.900Z,28.21
2022-08-25T07:32:41.963Z,28.24
2022-08-25T07:35:11.124Z,28.32
2022-08-25T07:37:48.777Z,28.25
2022-08-25T07:40:22.327Z,28.28
2022-08-25T07:42:50.737Z,28.32
2022-08-25T07:45:20.620Z,28.33
2022-08-25T07:47:51.586Z,28.33
2022-08-25T07:50:19.298Z,28.41
2022-08-25T07:52:52.172Z,28.36
2022-08-25T07:55:24.418Z,28.35
2022-08-25T07:57:54.027Z,28.36
2022-08-25T08:00:24.388Z,28.36
2022-08-25T08:02:51.898Z,28.27
2022-08-25T08:05:20.716Z,28.33
2022-08-25T08:07:51.160Z,28.30
2022-08-25T08:10:47.921Z,28.33
2022-08-25T08:13:09.403Z,28.22
2022-08-25T08:15:37.519Z,28.21
2022-08-25T08:18:04.739Z,28.21
2022-08-25T08:20:42.636Z,28.23
2022-08-25T08:23:10.601Z,28.28
2022-08-25T08:25:37.926Z,28.29
2022-08-25T08:28:07.264Z,28.33
2022-08-25T08:30:36.079Z,28.34
2022-08-25T08:33:10.098Z,28.35
2022-08-25T08:35:38.926Z,28.36
2022-08-25T08:38:13.135Z,28.35
2022-08-25T08:40:48.180Z,28.38
2022-08-25T08:43:21.228Z,28.35
2022-08-25T08:45:53.876Z,28.34
2022-08-25T08:48:43.103Z,28.36
2022-08-25T08:51:20.409Z,28.36
2022-08-25T08:53:55.657Z,28.34
2022-08-25T08:56:30.821Z,28.36
2022-08-25T08:59:06.095Z,28.35
2022-08-25T09:01:46.050Z,28.33
2022-08-25T09:04:20.925Z,28.30
2022-08-25T09:06:51.974Z,28.30
2022-08-25T09:09:26.494Z,28.39
2022-08-25T09:12:02.491Z,28.39
2022-08-25T09:14:45.458Z,28.40
2022-08-25T09:17:21.623Z,28.46
2022-08-25T09:20:18.162Z,28.54
2022-08-25T09:22:59.168Z,28.52
2022-08-25T09:25:52.941Z,28.49
2022-08-25T09:28:30.187Z,28.46
2022-08-25T09:31:01.046Z,28.46
2022-08-25T09:33:33.675Z,28.54
2022-08-25T09:36:06.281Z,28.45
2022-08-25T09:38:36.674Z,28.41
2022-08-25T09:41:04.368Z,28.40
2022-08-25T09:43:34.742Z,28.47
2022-08-25T09:46:08.873Z,28.45
2022-08-25T09:48:45.301Z,28.42
2022-08-25T09:51:20.300Z,28.34
2022-08-25T09:53:54.410Z,28.36
2022-08-25T09:56:22.958Z,28.39
2022-08-25T09:58:51.042Z,28.48
2022-08-25T10:01:20.701Z,28.48
2022-08-25T10:04:02.349Z,28.51
2022-08-25T10:06:34.914Z,28.45
2022-08-25T10:09:05.857Z,28.45
2022-08-25T10:11:39.852Z,28.50
2022-08-25T10:14:15.026Z,28.50
2022-08-25T10:16:42.526Z,28.52
2022-08-25T10:19:25.350Z,28.47
2022-08-25T10:22:07.157Z,28.46
2022-08-25T10:24:35.819Z,28.45
2022-08-25T10:27:15.951Z,28.45
2022-08-25T10:30:15.816Z,28.45
2022-08-25T10:32:57.903Z,28.45
2022-08-25T10:35:30.978Z,28.46
2022-08-25T10:38:07.892Z,28.45
2022-08-25T10:40:46.129Z,28.40
2022-08-25T10:43:23.862Z,28.37
2022-08-25T10:45:58.428Z,28.36
2022-08-25T10:48:40.098Z,28.38
2022-08-25T10:51:31.549Z,28.38
2022-08-25T10:54:07.786Z,28.41
2022-08-25T10:56:40.842Z,28.41
2022-08-25T10:59:27.509Z,28.44
2022-08-25T11:02:25.170Z,28.50
2022-08-25T11:04:58.126Z,28.52
2022-08-25T11:07:31.834Z,28.57
2022-08-25T11:10:05.303Z,28.55
2022-08-25T11:12:35.758Z,28.60
2022-08-25T11:15:08.888Z,28.59
2022-08-25T11:17:42.820Z,28.60
2022-08-25T11:20:26.493Z,28.61
2022-08-25T11:23:08.794Z,28.58
2022-08-25T11:25:43.595Z,28.53
2022-08-25T11:28:16.156Z,28.60
2022-08-25T11:30:43.378Z,28.54
2022-08-25T11:33:13.699Z,28.54
2022-08-25T11:35:45.556Z,28.55
2022-08-25T11:38:29.030Z,28.56
2022-08-25T11:41:11.140Z,28.55
2022-08-25T11:43:55.625Z,28.57
2022-08-25T11:46:47.764Z,28.59
2022-08-25T11:49:35.744Z,28.62
2022-08-25T11:52:04.786Z,28.69
2022-08-25T11:54:38.662Z,28.73
2022-08-25T11:57:18.074Z,28.76
2022-08-25T12:00:09.414Z,28.80
2022-08-25T12:02:40.098Z,28.79
2022-08-25T12:05:09.882Z,28.78
2022-08-25T12:08:00.369Z,28.78
2022-08-25T12:10:55.164Z,28.78
2022-08-25T12:13:45.314Z,28.78
2022-08-25T12:16:42.394Z,28.81
2022-08-25T12:19:38.603Z,28.73
2022-08-25T12:22:41.234Z,28.68
2022-08-25T12:25:20.971Z,28.65
2022-08-25T12:28:04.604Z,28.69
2022-08-25T12:30:45.705Z,28.67
2022-08-25T12:33:21.310Z,28.70
2022-08-25T12:35:57.030Z,28.72
2022-08-25T12:38:33.088Z,28.71
2022-08-25T12:41:07.076Z,28.75
2022-08-25T12:43:38.568Z,28.80
2022-08-25T12:46:42.110Z,28.86
2022-08-25T12:49:28.457Z,28.87
2022-08-25T12:52:04.787Z,28.89
2022-08-25T12:54:43.892Z,28.88
2022-08-25T12:57:29.439Z,28.89
2022-08-25T13:00:02.017Z,28.89
2022-08-25T13:03:02.771Z,28.85
2022-08-25T13:06:00.008Z,28.88
2022-08-25T13:08:46.674Z,28.85
2022-08-25T13:11:20.281Z,28.80
2022-08-25T13:13:56.460Z,28.76
2022-08-25T13:16:29.663Z,28.75
2022-08-25T13:18:58.541Z,28.75
2022-08-25T13:21:30.480Z,28.76
2022-08-25T13:24:04.583Z,28.80
2022-08-25T13:26:34.827Z,28.80
2022-08-25T13:29:13.269Z,28.84
2022-08-25T13:31:55.713Z,28.91
2022-08-25T13:34:34.481Z,28.93
2022-08-25T13:37:07.340Z,28.96
2022-08-25T13:42:24.499Z,29.02
2022-08-25T13:44:56.061Z,29.00
2022-08-25T13:47:43.320Z,29.02
2022-08-25T13:50:18.316Z,29.02
2022-08-25T13:52:51.173Z,29.04
2022-08-25T13:55:23.042Z,29.05
2022-08-25T13:57:57.168Z,29.03
2022-08-25T14:00:32.431Z,29.03
2022-08-25T14:03:08.678Z,29.01
2022-08-25T14:05:42.278Z,28.99
2022-08-25T14:08:31.373Z,28.96
2022-08-25T14:11:06.877Z,28.98
2022-08-25T14:13:43.754Z,28.97
2022-08-25T14:16:14.755Z,28.99
2022-08-25T14:18:50.975Z,29.04
2022-08-25T14:21:20.267Z,29.12
2022-08-25T14:23:47.507Z,29.15
2022-08-25T14:26:14.642Z,29.18
2022-08-25T14:28:41.833Z,29.21
2022-08-25T14:31:15.344Z,29.30
2022-08-25T14:33:54.716Z,29.30
2022-08-25T14:36:21.907Z,29.33
2022-08-25T14:38:54.956Z,29.31
2022-08-25T14:41:23.201Z,29.27
2022-08-25T14:43:50.508Z,29.27
2022-08-25T14:46:21.123Z,29.28
2022-08-25T14:48:53.422Z,29.24
2022-08-25T14:51:23.766Z,29.20
2022-08-25T14:53:54.137Z,29.17
2022-08-25T14:56:21.361Z,29.15
2022-08-25T14:58:51.435Z,29.12
2022-08-25T15:01:29.168Z,29.12
2022-08-25T15:04:03.509Z,29.13
2022-08-25T15:06:31.031Z,29.08
2022-08-25T15:08:58.120Z,29.06
2022-08-25T15:11:25.579Z,29.06
2022-08-25T15:13:53.656Z,29.10
2022-08-25T15:16:34.024Z,29.14
2022-08-25T15:19:06.652Z,29.15
2022-08-25T15:21:34.792Z,29.15
2022-08-25T15:24:03.422Z,29.13
2022-08-25T15:26:30.761Z,29.13
2022-08-25T15:28:59.513Z,29.12
2022-08-25T15:31:26.742Z,29.12
2022-08-25T15:33:54.022Z,28.87
2022-08-25T15:36:25.698Z,28.92
2022-08-25T15:38:53.085Z,28.89
2022-08-25T15:41:20.613Z,28.86
2022-08-25T15:43:51.648Z,28.81
2022-08-25T15:46:21.527Z,28.77
2022-08-25T15:48:48.728Z,28.76
2022-08-25T15:51:17.249Z,28.77
2022-08-25T15:53:45.879Z,28.72
2022-08-25T15:56:13.801Z,28.74
2022-08-25T15:58:49.796Z,28.78
2022-08-25T16:01:19.647Z,28.82
2022-08-25T16:03:47.044Z,28.82
2022-08-25T16:06:14.257Z,28.83
2022-08-25T16:08:41.549Z,28.83
2022-08-25T16:11:18.521Z,28.90
2022-08-25T16:13:46.125Z,28.86
2022-08-25T16:16:13.565Z,28.83
2022-08-25T16:18:40.822Z,28.79
2022-08-25T16:21:12.526Z,28.69
2022-08-25T16:23:40.627Z,28.69
2022-08-25T16:26:09.881Z,28.71
2022-08-25T16:28:39.380Z,28.63
2022-08-25T16:31:14.018Z,28.58
2022-08-25T16:36:16.233Z,28.25
2022-08-25T16:38:48.976Z,28.46
2022-08-25T16:41:19.575Z,28.48
2022-08-25T16:43:49.862Z,28.55
2022-08-25T16:46:19.169Z,28.59
2022-08-25T16:48:47.151Z,28.61
2022-08-25T16:51:16.804Z,28.65
2022-08-25T16:53:47.334Z,28.61
2022-08-25T16:56:15.984Z,28.58
2022-08-25T16:58:43.665Z,28.64
2022-08-25T17:01:14.340Z,28.67
2022-08-25T17:03:43.905Z,28.67
2022-08-25T17:06:11.828Z,28.74
2022-08-25T17:08:39.782Z,28.67
2022-08-25T17:11:09.399Z,28.73
2022-08-25T17:13:38.422Z,28.71
2022-08-25T17:16:06.503Z,28.72
2022-08-25T17:18:36.015Z,28.63
2022-08-25T17:21:06.466Z,28.67
2022-08-25T17:23:35.256Z,28.69
2022-08-25T17:26:03.825Z,28.73
2022-08-25T17:28:33.070Z,28.70
2022-08-25T17:31:01.137Z,28.67
2022-08-25T17:33:28.380Z,28.64
2022-08-25T17:35:57.729Z,28.72
2022-08-25T17:38:26.777Z,28.66
2022-08-25T17:40:57.909Z,28.64
2022-08-25T17:43:26.402Z,28.65
2022-08-25T17:45:55.940Z,28.71
2022-08-25T17:48:24.866Z,28.78
2022-08-25T17:50:54.019Z,28.75
2022-08-25T17:53:22.543Z,28.72
2022-08-25T17:55:57.343Z,28.73
2022-08-25T17:58:25.571Z,28.71
2022-08-25T18:00:55.053Z,28.71
2022-08-25T18:03:22.379Z,28.68
2022-08-25T18:05:49.581Z,28.67
2022-08-25T18:08:16.990Z,28.59
2022-08-25T18:10:45.758Z,28.59
2022-08-25T18:13:13.017Z,28.58
2022-08-25T18:15:42.726Z,28.51
2022-08-25T18:18:12.574Z,28.45
2022-08-25T18:20:40.808Z,28.43
2022-08-25T18:23:10.910Z,28.42
2022-08-25T18:25:41.722Z,28.43
2022-08-25T18:28:10.587Z,28.39
2022-08-25T18:30:38.260Z,28.47
2022-08-25T18:33:05.809Z,28.52
2022-08-25T18:35:33.029Z,28.59
2022-08-25T18:38:00.267Z,28.65
2022-08-25T18:40:28.489Z,28.60
2022-08-25T18:42:57.895Z,28.63
2022-08-25T18:45:28.549Z,28.66
2022-08-25T18:47:55.835Z,28.70
2022-08-25T18:50:24.668Z,28.69
2022-08-25T18:52:51.949Z,28.68
2022-08-25T18:55:23.119Z,28.66
2022-08-25T18:57:51.294Z,28.67
2022-08-25T19:00:22.626Z,28.67
2022-08-25T19:02:54.165Z,28.65
2022-08-25T19:05:25.823Z,28.65
2022-08-25T19:07:53.657Z,28.64
2022-08-25T19:10:21.535Z,28.65
2022-08-25T19:12:52.199Z,28.65
2022-08-25T19:15:24.762Z,28.71
2022-08-25T19:17:54.379Z,28.69
2022-08-25T19:20:23.590Z,28.72
2022-08-25T19:22:51.288Z,28.69
2022-08-25T19:25:19.881Z,28.71
2022-08-25T19:27:47.697Z,28.71
2022-08-25T19:30:18.095Z,28.75
2022-08-25T19:32:47.184Z,28.73
2022-08-25T19:35:19.895Z,28.73
2022-08-25T19:37:47.366Z,28.68
2022-08-25T19:40:14.999Z,28.67
2022-08-25T19:42:45.750Z,28.67
2022-08-25T19:45:14.183Z,28.71
2022-08-25T19:47:41.413Z,28.73
2022-08-25T19:50:09.616Z,28.75
2022-08-25T19:52:38.265Z,28.73
2022-08-25T19:55:06.642Z,28.71
2022-08-25T19:57:42.415Z,28.73
2022-08-25T20:00:15.481Z,28.74
2022-08-25T20:02:43.328Z,28.67
2022-08-25T20:05:11.154Z,28.63
2022-08-25T20:07:40.744Z,28.63
2022-08-25T20:10:13.962Z,28.62
2022-08-25T20:12:41.995Z,28.61
2022-08-25T20:15:09.221Z,28.65
2022-08-25T20:17:36.392Z,28.65
2022-08-25T20:20:07.150Z,28.66
2022-08-25T20:22:36.362Z,28.67
2022-08-25T20:25:13.102Z,28.71
2022-08-25T20:27:43.561Z,28.76
2022-08-25T20:30:14.375Z,28.83
2022-08-25T20:32:44.207Z,28.85
2022-08-25T20:35:13.410Z,28.81
2022-08-25T20:37:41.582Z,28.85
2022-08-25T20:40:13.487Z,28.83
2022-08-25T20:42:40.799Z,28.83
2022-08-25T20:45:12.037Z,28.88
2022-08-25T20:47:39.383Z,28.87
2022-08-25T20:50:08.928Z,28.90
2022-08-25T20:52:36.883Z,28.88
2022-08-25T20:55:08.212Z,28.86
2022-08-25T20:57:36.718Z,28.76
2022-08-25T21:00:06.300Z,28.75
2022-08-25T21:02:34.440Z,28.79
2022-08-25T21:05:03.006Z,28.76
2022-08-25T21:07:30.370Z,28.80
2022-08-25T21:09:57.994Z,28.77
2022-08-25T21:12:25.165Z,28.78
2022-08-25T21:14:55.395Z,28.80
2022-08-25T21:17:22.614Z,28.82
2022-08-25T21:19:49.726Z,28.83
2022-08-25T21:22:17.019Z,28.85
2022-08-25T21:24:44.170Z,28.85
2022-08-25T21:27:11.823Z,28.85
2022-08-25T21:29:39.014Z,28.83
2022-08-25T21:32:13.316Z,28.82
2022-08-25T21:34:40.466Z,28.82
2022-08-25T21:37:07.598Z,28.84
2022-08-25T21:39:35.017Z,28.82
2022-08-25T21:42:04.048Z,28.82
2022-08-25T21:44:31.210Z,28.74
2022-08-25T21:46:58.351Z,28.74
2022-08-25T21:49:26.898Z,28.73
2022-08-25T21:52:02.411Z,28.75
2022-08-25T21:54:31.615Z,28.75
2022-08-25T21:57:01.448Z,28.80
2022-08-25T21:59:31.038Z,28.80
2022-08-25T22:02:00.664Z,28.83
2022-08-25T22:04:30.676Z,28.84
2022-08-25T22:06:59.265Z,28.85
2022-08-25T22:09:28.403Z,28.87
2022-08-25T22:11:56.140Z,28.89
2022-08-25T22:14:26.125Z,28.88
2022-08-25T22:16:53.575Z,28.85
2022-08-25T22:19:22.792Z,28.85
2022-08-25T22:21:52.786Z,28.85
2022-08-25T22:24:20.175Z,28.84
2022-08-25T22:26:48.609Z,28.83
2022-08-25T22:29:24.787Z,28.86
2022-08-25T22:31:53.414Z,28.81
2022-08-25T22:34:30.508Z,28.78
2022-08-25T22:37:01.177Z,28.78
2022-08-25T22:39:29.365Z,28.76
2022-08-25T22:41:56.503Z,28.81
2022-08-25T22:44:23.712Z,28.79
2022-08-25T22:46:50.914Z,28.80
2022-08-25T22:49:18.074Z,28.81
2022-08-25T22:51:46.982Z,28.79
2022-08-25T22:54:16.508Z,28.84
2022-08-25T22:56:43.679Z,28.86
2022-08-25T22:59:12.556Z,28.86
2022-08-25T23:01:41.018Z,28.85
2022-08-25T23:04:08.329Z,28.86
2022-08-25T23:06:35.584Z,28.84
2022-08-25T23:09:05.115Z,28.84
2022-08-25T23:11:33.948Z,28.84
2022-08-25T23:14:01.085Z,28.83
2022-08-25T23:16:29.129Z,28.84
2022-08-25T23:18:56.325Z,28.82
2022-08-25T23:21:24.317Z,28.81
2022-08-25T23:23:52.143Z,28.77
2022-08-25T23:26:19.648Z,28.74
2022-08-25T23:28:48.957Z,28.76
2022-08-25T23:31:17.282Z,28.78
2022-08-25T23:33:44.646Z,28.75
2022-08-25T23:36:14.393Z,28.84
2022-08-25T23:38:44.802Z,28.79
2022-08-25T23:41:21.730Z,28.86
2022-08-25T23:43:52.230Z,28.86
2022-08-25T23:46:24.858Z,28.89
2022-08-25T23:48:55.091Z,28.90
2022-08-25T23:51:24.302Z,28.90
2022-08-25T23:53:51.841Z,28.88
2022-08-25T23:56:18.964Z,28.89
2022-08-25T23:58:46.156Z,28.89
